sensor_id;sensor_type;location;lat;lon;timestamp;pressure;altitude;pressure_sealevel;temperature;humidity
52291;BME280;39663;45.432;28.050;2023-10-08T00:08:36;100986.40;;;18.40;33.30
52291;BME280;39663;45.432;28.050;2023-10-08T00:09:08;100983.46;;;18.38;33.34
52291;BME280;39663;45.432;28.050;2023-10-08T00:09:39;100984.88;;;18.41;33.30
52291;BME280;39663;45.432;28.050;2023-10-08T00:10:11;100982.46;;;18.38;33.47
52291;BME280;39663;45.432;28.050;2023-10-08T00:10:43;100983.40;;;18.20;33.92
52291;BME280;39663;45.432;28.050;2023-10-08T00:11:15;100981.50;;;18.25;33.70
52291;BME280;39663;45.432;28.050;2023-10-08T00:11:46;100980.76;;;18.21;33.93
52291;BME280;39663;45.432;28.050;2023-10-08T00:12:18;100980.33;;;18.15;34.15
52291;BME280;39663;45.432;28.050;2023-10-08T00:12:50;100978.01;;;18.25;34.01
52291;BME280;39663;45.432;28.050;2023-10-08T00:13:21;100978.54;;;18.27;34.04
52291;BME280;39663;45.432;28.050;2023-10-08T00:13:53;100978.85;;;18.29;34.32
52291;BME280;39663;45.432;28.050;2023-10-08T00:14:24;100976.25;;;18.02;34.47
52291;BME280;39663;45.432;28.050;2023-10-08T00:14:56;100974.08;;;17.94;34.61
52291;BME280;39663;45.432;28.050;2023-10-08T00:15:27;100973.08;;;17.94;34.78
52291;BME280;39663;45.432;28.050;2023-10-08T00:15:59;100974.84;;;17.91;34.92
52291;BME280;39663;45.432;28.050;2023-10-08T00:16:30;100972.70;;;17.92;35.09
52291;BME280;39663;45.432;28.050;2023-10-08T00:17:02;100972.80;;;17.87;35.15
52291;BME280;39663;45.432;28.050;2023-10-08T00:17:34;100970.72;;;17.78;35.26
52291;BME280;39663;45.432;28.050;2023-10-08T00:18:05;100971.53;;;18.12;35.18
52291;BME280;39663;45.432;28.050;2023-10-08T00:18:38;100967.86;;;17.91;35.25
52291;BME280;39663;45.432;28.050;2023-10-08T00:19:09;100965.77;;;17.88;35.30
52291;BME280;39663;45.432;28.050;2023-10-08T00:19:41;100965.74;;;18.13;35.17
52291;BME280;39663;45.432;28.050;2023-10-08T00:20:12;100962.88;;;18.24;35.13
52291;BME280;39663;45.432;28.050;2023-10-08T00:20:44;100965.53;;;18.03;35.13
52291;BME280;39663;45.432;28.050;2023-10-08T00:21:15;100964.82;;;18.30;35.04
52291;BME280;39663;45.432;28.050;2023-10-08T00:21:47;100963.61;;;18.06;35.17
52291;BME280;39663;45.432;28.050;2023-10-08T00:22:19;100962.30;;;18.06;35.20
52291;BME280;39663;45.432;28.050;2023-10-08T00:22:51;100960.35;;;18.13;35.25
52291;BME280;39663;45.432;28.050;2023-10-08T00:23:23;100958.06;;;18.36;35.13
52291;BME280;39663;45.432;28.050;2023-10-08T00:23:55;100958.79;;;18.21;35.22
52291;BME280;39663;45.432;28.050;2023-10-08T00:24:27;100956.15;;;17.99;35.26
52291;BME280;39663;45.432;28.050;2023-10-08T00:24:59;100955.54;;;18.21;35.37
52291;BME280;39663;45.432;28.050;2023-10-08T00:25:32;100956.70;;;18.07;35.49
52291;BME280;39663;45.432;28.050;2023-10-08T00:26:03;100952.85;;;18.08;35.49
52291;BME280;39663;45.432;28.050;2023-10-08T00:26:35;100951.46;;;18.17;35.52
52291;BME280;39663;45.432;28.050;2023-10-08T00:27:07;100950.98;;;18.13;35.57
52291;BME280;39663;45.432;28.050;2023-10-08T00:27:39;100949.45;;;18.11;35.67
52291;BME280;39663;45.432;28.050;2023-10-08T00:28:10;100949.10;;;18.21;35.78
52291;BME280;39663;45.432;28.050;2023-10-08T00:28:42;100948.56;;;18.03;35.83
52291;BME280;39663;45.432;28.050;2023-10-08T00:29:14;100948.99;;;18.04;35.65
52291;BME280;39663;45.432;28.050;2023-10-08T00:29:45;100949.01;;;18.10;35.66
52291;BME280;39663;45.432;28.050;2023-10-08T00:30:17;100948.67;;;18.38;35.60
52291;BME280;39663;45.432;28.050;2023-10-08T00:30:48;100948.80;;;18.15;35.69
52291;BME280;39663;45.432;28.050;2023-10-08T00:31:20;100946.85;;;18.24;35.54
52291;BME280;39663;45.432;28.050;2023-10-08T00:31:51;100946.52;;;18.26;35.64
52291;BME280;39663;45.432;28.050;2023-10-08T00:32:23;100946.28;;;18.43;35.74
52291;BME280;39663;45.432;28.050;2023-10-08T00:32:55;100946.75;;;18.24;35.73
52291;BME280;39663;45.432;28.050;2023-10-08T00:33:26;100945.52;;;18.17;35.79
52291;BME280;39663;45.432;28.050;2023-10-08T00:33:58;100948.67;;;18.44;35.75
52291;BME280;39663;45.432;28.050;2023-10-08T00:34:29;100947.80;;;18.29;35.74
52291;BME280;39663;45.432;28.050;2023-10-08T00:35:01;100949.18;;;18.30;35.80
52291;BME280;39663;45.432;28.050;2023-10-08T00:35:37;100947.99;;;18.42;35.67
52291;BME280;39663;45.432;28.050;2023-10-08T00:36:09;100945.77;;;18.33;35.78
52291;BME280;39663;45.432;28.050;2023-10-08T00:36:42;100947.88;;;18.39;35.73
52291;BME280;39663;45.432;28.050;2023-10-08T00:37:13;100948.27;;;18.27;35.86
52291;BME280;39663;45.432;28.050;2023-10-08T00:37:45;100946.44;;;18.28;36.04
52291;BME280;39663;45.432;28.050;2023-10-08T00:38:17;100945.00;;;18.20;35.98
52291;BME280;39663;45.432;28.050;2023-10-08T00:38:48;100944.68;;;18.36;36.08
52291;BME280;39663;45.432;28.050;2023-10-08T00:39:20;100944.48;;;18.19;36.19
52291;BME280;39663;45.432;28.050;2023-10-08T00:39:51;100943.57;;;18.15;36.20
52291;BME280;39663;45.432;28.050;2023-10-08T00:40:23;100943.72;;;18.20;36.10
52291;BME280;39663;45.432;28.050;2023-10-08T00:40:54;100944.28;;;18.21;36.05
52291;BME280;39663;45.432;28.050;2023-10-08T00:41:26;100943.27;;;18.02;36.22
52291;BME280;39663;45.432;28.050;2023-10-08T00:41:58;100942.46;;;18.12;36.21
52291;BME280;39663;45.432;28.050;2023-10-08T00:42:31;100940.33;;;18.15;36.20
52291;BME280;39663;45.432;28.050;2023-10-08T00:43:02;100938.29;;;18.22;36.26
52291;BME280;39663;45.432;28.050;2023-10-08T00:43:35;100935.71;;;18.27;36.10
52291;BME280;39663;45.432;28.050;2023-10-08T00:44:08;100932.35;;;18.20;36.27
52291;BME280;39663;45.432;28.050;2023-10-08T00:44:39;100930.42;;;18.13;36.26
52291;BME280;39663;45.432;28.050;2023-10-08T00:45:11;100930.32;;;18.18;36.43
52291;BME280;39663;45.432;28.050;2023-10-08T00:45:43;100927.29;;;18.22;36.20
52291;BME280;39663;45.432;28.050;2023-10-08T00:46:16;100925.64;;;17.93;36.38
52291;BME280;39663;45.432;28.050;2023-10-08T00:46:49;100924.74;;;18.12;36.42
52291;BME280;39663;45.432;28.050;2023-10-08T00:47:21;100924.18;;;18.14;36.45
52291;BME280;39663;45.432;28.050;2023-10-08T00:47:53;100922.58;;;18.20;36.22
52291;BME280;39663;45.432;28.050;2023-10-08T00:48:25;100919.14;;;18.14;36.31
52291;BME280;39663;45.432;28.050;2023-10-08T00:48:58;100917.97;;;18.17;36.35
52291;BME280;39663;45.432;28.050;2023-10-08T00:49:30;100919.22;;;18.14;36.48
52291;BME280;39663;45.432;28.050;2023-10-08T00:50:03;100916.45;;;17.77;36.34
52291;BME280;39663;45.432;28.050;2023-10-08T00:50:34;100914.89;;;18.15;36.41
52291;BME280;39663;45.432;28.050;2023-10-08T00:51:06;100917.13;;;18.05;35.99
52291;BME280;39663;45.432;28.050;2023-10-08T00:51:38;100915.75;;;18.12;36.63
52291;BME280;39663;45.432;28.050;2023-10-08T00:52:11;100913.06;;;18.22;36.33
52291;BME280;39663;45.432;28.050;2023-10-08T00:52:42;100912.58;;;18.22;36.07
52291;BME280;39663;45.432;28.050;2023-10-08T00:53:14;100914.09;;;18.08;35.97
52291;BME280;39663;45.432;28.050;2023-10-08T00:53:46;100914.59;;;18.23;36.56
52291;BME280;39663;45.432;28.050;2023-10-08T00:54:20;100913.89;;;18.29;36.19
52291;BME280;39663;45.432;28.050;2023-10-08T00:54:51;100912.33;;;18.28;36.04
52291;BME280;39663;45.432;28.050;2023-10-08T00:55:24;100912.08;;;18.24;36.09
52291;BME280;39663;45.432;28.050;2023-10-08T00:55:56;100909.46;;;18.18;36.36
52291;BME280;39663;45.432;28.050;2023-10-08T00:56:28;100910.82;;;18.42;36.03
52291;BME280;39663;45.432;28.050;2023-10-08T00:57:00;100911.22;;;18.28;36.09
52291;BME280;39663;45.432;28.050;2023-10-08T00:57:33;100911.08;;;18.16;36.19
52291;BME280;39663;45.432;28.050;2023-10-08T00:58:05;100912.67;;;18.32;36.49
52291;BME280;39663;45.432;28.050;2023-10-08T00:58:37;100911.55;;;17.98;36.24
52291;BME280;39663;45.432;28.050;2023-10-08T00:59:08;100910.00;;;18.21;36.02
52291;BME280;39663;45.432;28.050;2023-10-08T00:59:40;100908.08;;;18.15;36.35
52291;BME280;39663;45.432;28.050;2023-10-08T01:00:12;100907.20;;;18.15;36.39
52291;BME280;39663;45.432;28.050;2023-10-08T01:00:44;100905.33;;;18.24;36.26
52291;BME280;39663;45.432;28.050;2023-10-08T01:01:16;100905.35;;;18.26;36.12
52291;BME280;39663;45.432;28.050;2023-10-08T01:01:48;100905.56;;;18.17;36.59
52291;BME280;39663;45.432;28.050;2023-10-08T01:02:31;100907.83;;;18.20;36.27
52291;BME280;39663;45.432;28.050;2023-10-08T01:03:03;100906.33;;;18.22;36.66
52291;BME280;39663;45.432;28.050;2023-10-08T01:03:37;100910.07;;;18.35;35.97
52291;BME280;39663;45.432;28.050;2023-10-08T01:04:08;100909.60;;;18.28;36.10
52291;BME280;39663;45.432;28.050;2023-10-08T01:04:40;100912.18;;;18.25;36.16
52291;BME280;39663;45.432;28.050;2023-10-08T01:05:13;100912.58;;;18.26;36.09
52291;BME280;39663;45.432;28.050;2023-10-08T01:05:44;100911.06;;;18.38;36.31
52291;BME280;39663;45.432;28.050;2023-10-08T01:06:17;100912.36;;;18.22;36.35
52291;BME280;39663;45.432;28.050;2023-10-08T01:06:51;100912.42;;;18.16;36.66
52291;BME280;39663;45.432;28.050;2023-10-08T01:07:23;100917.00;;;18.28;36.03
52291;BME280;39663;45.432;28.050;2023-10-08T01:07:56;100915.81;;;18.16;36.27
52291;BME280;39663;45.432;28.050;2023-10-08T01:08:28;100916.42;;;17.95;36.33
52291;BME280;39663;45.432;28.050;2023-10-08T01:09:00;100913.20;;;18.12;36.65
52291;BME280;39663;45.432;28.050;2023-10-08T01:09:31;100910.39;;;18.15;36.21
52291;BME280;39663;45.432;28.050;2023-10-08T01:10:03;100907.27;;;18.05;36.44
52291;BME280;39663;45.432;28.050;2023-10-08T01:10:35;100906.27;;;17.81;36.65
52291;BME280;39663;45.432;28.050;2023-10-08T01:11:18;100907.32;;;18.03;36.40
52291;BME280;39663;45.432;28.050;2023-10-08T01:12:07;100907.46;;;17.71;36.76
52291;BME280;39663;45.432;28.050;2023-10-08T01:12:39;100909.30;;;17.99;36.48
52291;BME280;39663;45.432;28.050;2023-10-08T01:13:10;100906.20;;;17.88;36.84
52291;BME280;39663;45.432;28.050;2023-10-08T01:13:41;100903.15;;;17.85;37.13
52291;BME280;39663;45.432;28.050;2023-10-08T01:14:13;100902.41;;;18.04;37.10
52291;BME280;39663;45.432;28.050;2023-10-08T01:14:44;100903.10;;;17.92;36.83
52291;BME280;39663;45.432;28.050;2023-10-08T01:15:16;100901.77;;;17.97;36.45
52291;BME280;39663;45.432;28.050;2023-10-08T01:15:47;100901.47;;;18.10;36.57
52291;BME280;39663;45.432;28.050;2023-10-08T01:16:19;100901.47;;;18.06;37.15
52291;BME280;39663;45.432;28.050;2023-10-08T01:16:50;100904.04;;;18.14;36.80
52291;BME280;39663;45.432;28.050;2023-10-08T01:17:23;100903.15;;;17.79;37.18
52291;BME280;39663;45.432;28.050;2023-10-08T01:17:56;100901.86;;;18.10;37.10
52291;BME280;39663;45.432;28.050;2023-10-08T01:18:29;100899.63;;;17.98;36.64
52291;BME280;39663;45.432;28.050;2023-10-08T01:19:00;100896.54;;;17.96;37.13
52291;BME280;39663;45.432;28.050;2023-10-08T01:19:32;100901.69;;;18.06;36.61
52291;BME280;39663;45.432;28.050;2023-10-08T01:20:04;100903.92;;;17.99;36.34
52291;BME280;39663;45.432;28.050;2023-10-08T01:20:36;100902.00;;;17.98;36.42
52291;BME280;39663;45.432;28.050;2023-10-08T01:21:07;100899.62;;;17.93;36.56
52291;BME280;39663;45.432;28.050;2023-10-08T01:21:39;100899.59;;;17.94;36.60
52291;BME280;39663;45.432;28.050;2023-10-08T01:22:10;100900.76;;;17.88;37.00
52291;BME280;39663;45.432;28.050;2023-10-08T01:22:41;100901.23;;;17.87;36.98
52291;BME280;39663;45.432;28.050;2023-10-08T01:23:13;100903.19;;;18.06;36.64
52291;BME280;39663;45.432;28.050;2023-10-08T01:23:45;100901.78;;;18.00;37.13
52291;BME280;39663;45.432;28.050;2023-10-08T01:24:16;100900.59;;;17.98;37.05
52291;BME280;39663;45.432;28.050;2023-10-08T01:24:48;100899.11;;;18.01;37.12
52291;BME280;39663;45.432;28.050;2023-10-08T01:25:21;100898.84;;;18.11;36.62
52291;BME280;39663;45.432;28.050;2023-10-08T01:25:52;100896.66;;;17.91;36.94
52291;BME280;39663;45.432;28.050;2023-10-08T01:26:23;100897.30;;;17.90;36.88
52291;BME280;39663;45.432;28.050;2023-10-08T01:26:55;100895.28;;;17.94;36.69
52291;BME280;39663;45.432;28.050;2023-10-08T01:27:30;100894.31;;;17.94;36.60
52291;BME280;39663;45.432;28.050;2023-10-08T01:28:02;100893.52;;;17.93;36.52
52291;BME280;39663;45.432;28.050;2023-10-08T01:28:34;100890.41;;;17.88;36.52
52291;BME280;39663;45.432;28.050;2023-10-08T01:29:09;100889.05;;;18.17;36.74
52291;BME280;39663;45.432;28.050;2023-10-08T01:29:40;100886.45;;;17.92;36.75
52291;BME280;39663;45.432;28.050;2023-10-08T01:30:12;100886.20;;;17.69;37.02
52291;BME280;39663;45.432;28.050;2023-10-08T01:30:44;100887.32;;;17.64;37.08
52291;BME280;39663;45.432;28.050;2023-10-08T01:31:16;100886.31;;;17.61;36.97
52291;BME280;39663;45.432;28.050;2023-10-08T01:31:47;100885.54;;;17.69;37.28
52291;BME280;39663;45.432;28.050;2023-10-08T01:32:20;100885.63;;;17.93;37.35
52291;BME280;39663;45.432;28.050;2023-10-08T01:32:52;100886.38;;;17.59;37.27
52291;BME280;39663;45.432;28.050;2023-10-08T01:33:24;100885.13;;;17.56;37.35
52291;BME280;39663;45.432;28.050;2023-10-08T01:33:55;100882.56;;;17.56;37.43
52291;BME280;39663;45.432;28.050;2023-10-08T01:34:27;100882.71;;;17.41;37.63
52291;BME280;39663;45.432;28.050;2023-10-08T01:34:58;100883.71;;;17.44;37.82
52291;BME280;39663;45.432;28.050;2023-10-08T01:35:29;100881.17;;;17.27;38.06
52291;BME280;39663;45.432;28.050;2023-10-08T01:36:01;100882.93;;;17.35;37.92
52291;BME280;39663;45.432;28.050;2023-10-08T01:36:32;100881.41;;;17.55;37.86
52291;BME280;39663;45.432;28.050;2023-10-08T01:37:04;100882.00;;;17.69;37.76
52291;BME280;39663;45.432;28.050;2023-10-08T01:37:35;100881.90;;;17.52;37.87
52291;BME280;39663;45.432;28.050;2023-10-08T01:38:07;100881.23;;;17.44;37.95
52291;BME280;39663;45.432;28.050;2023-10-08T01:38:38;100882.12;;;17.63;37.98
52291;BME280;39663;45.432;28.050;2023-10-08T01:39:10;100880.12;;;17.53;37.93
52291;BME280;39663;45.432;28.050;2023-10-08T01:39:42;100880.44;;;17.56;37.87
52291;BME280;39663;45.432;28.050;2023-10-08T01:40:13;100878.59;;;17.72;38.01
52291;BME280;39663;45.432;28.050;2023-10-08T01:40:45;100879.65;;;17.50;38.11
52291;BME280;39663;45.432;28.050;2023-10-08T01:41:16;100879.66;;;17.70;38.32
52291;BME280;39663;45.432;28.050;2023-10-08T01:41:48;100880.38;;;17.52;38.38
52291;BME280;39663;45.432;28.050;2023-10-08T01:42:19;100880.50;;;17.37;38.66
52291;BME280;39663;45.432;28.050;2023-10-08T01:42:51;100881.54;;;17.36;38.58
52291;BME280;39663;45.432;28.050;2023-10-08T01:43:23;100881.52;;;17.35;38.69
52291;BME280;39663;45.432;28.050;2023-10-08T01:43:54;100881.71;;;17.26;38.72
52291;BME280;39663;45.432;28.050;2023-10-08T01:44:26;100880.10;;;17.33;38.64
52291;BME280;39663;45.432;28.050;2023-10-08T01:44:57;100880.86;;;17.41;38.61
52291;BME280;39663;45.432;28.050;2023-10-08T01:45:28;100880.01;;;17.70;38.51
52291;BME280;39663;45.432;28.050;2023-10-08T01:46:02;100882.12;;;17.43;38.50
52291;BME280;39663;45.432;28.050;2023-10-08T01:46:34;100884.65;;;17.70;38.49
52291;BME280;39663;45.432;28.050;2023-10-08T01:47:05;100885.20;;;17.62;38.42
52291;BME280;39663;45.432;28.050;2023-10-08T01:47:37;100886.53;;;17.69;38.35
52291;BME280;39663;45.432;28.050;2023-10-08T01:48:09;100887.74;;;17.60;38.59
52291;BME280;39663;45.432;28.050;2023-10-08T01:48:41;100888.56;;;17.63;38.47
52291;BME280;39663;45.432;28.050;2023-10-08T01:49:12;100889.16;;;17.47;38.66
52291;BME280;39663;45.432;28.050;2023-10-08T01:49:44;100885.10;;;17.28;38.59
52291;BME280;39663;45.432;28.050;2023-10-08T01:50:15;100883.73;;;17.50;38.68
52291;BME280;39663;45.432;28.050;2023-10-08T01:50:47;100884.29;;;17.54;38.55
52291;BME280;39663;45.432;28.050;2023-10-08T01:51:18;100882.67;;;17.53;38.69
52291;BME280;39663;45.432;28.050;2023-10-08T01:51:50;100885.25;;;17.25;38.63
52291;BME280;39663;45.432;28.050;2023-10-08T01:52:22;100886.90;;;17.46;38.66
52291;BME280;39663;45.432;28.050;2023-10-08T01:52:53;100886.51;;;17.43;38.75
52291;BME280;39663;45.432;28.050;2023-10-08T01:53:24;100883.68;;;17.46;38.79
52291;BME280;39663;45.432;28.050;2023-10-08T01:53:56;100885.84;;;17.60;38.62
52291;BME280;39663;45.432;28.050;2023-10-08T01:54:27;100886.17;;;17.74;38.18
52291;BME280;39663;45.432;28.050;2023-10-08T01:54:59;100885.84;;;17.67;38.39
52291;BME280;39663;45.432;28.050;2023-10-08T01:55:31;100883.87;;;17.70;38.27
52291;BME280;39663;45.432;28.050;2023-10-08T01:56:03;100883.29;;;17.45;38.32
52291;BME280;39663;45.432;28.050;2023-10-08T01:56:35;100882.06;;;17.50;38.58
52291;BME280;39663;45.432;28.050;2023-10-08T01:57:07;100882.83;;;17.64;38.70
52291;BME280;39663;45.432;28.050;2023-10-08T01:57:38;100884.48;;;17.42;38.60
52291;BME280;39663;45.432;28.050;2023-10-08T01:58:10;100882.11;;;17.55;38.76
52291;BME280;39663;45.432;28.050;2023-10-08T01:58:41;100880.45;;;17.21;38.54
52291;BME280;39663;45.432;28.050;2023-10-08T01:59:14;100878.47;;;17.37;38.52
52291;BME280;39663;45.432;28.050;2023-10-08T01:59:45;100873.19;;;17.09;38.58
52291;BME280;39663;45.432;28.050;2023-10-08T02:00:17;100871.67;;;17.25;38.75
52291;BME280;39663;45.432;28.050;2023-10-08T02:00:49;100867.41;;;17.03;38.47
52291;BME280;39663;45.432;28.050;2023-10-08T02:01:21;100868.80;;;17.20;38.62
52291;BME280;39663;45.432;28.050;2023-10-08T02:01:53;100865.71;;;17.27;38.50
52291;BME280;39663;45.432;28.050;2023-10-08T02:02:24;100864.47;;;17.41;38.25
52291;BME280;39663;45.432;28.050;2023-10-08T02:02:56;100864.04;;;17.11;39.31
52291;BME280;39663;45.432;28.050;2023-10-08T02:03:27;100866.33;;;17.25;38.37
52291;BME280;39663;45.432;28.050;2023-10-08T02:03:59;100868.88;;;17.40;38.38
52291;BME280;39663;45.432;28.050;2023-10-08T02:04:30;100868.44;;;17.13;39.22
52291;BME280;39663;45.432;28.050;2023-10-08T02:05:02;100869.46;;;17.31;38.33
52291;BME280;39663;45.432;28.050;2023-10-08T02:05:34;100871.52;;;17.30;38.37
52291;BME280;39663;45.432;28.050;2023-10-08T02:06:05;100871.55;;;17.56;38.32
52291;BME280;39663;45.432;28.050;2023-10-08T02:06:37;100871.55;;;17.38;38.72
52291;BME280;39663;45.432;28.050;2023-10-08T02:07:09;100872.75;;;17.60;38.72
52291;BME280;39663;45.432;28.050;2023-10-08T02:07:41;100869.61;;;17.58;38.07
52291;BME280;39663;45.432;28.050;2023-10-08T02:08:13;100871.48;;;17.58;37.61
52291;BME280;39663;45.432;28.050;2023-10-08T02:08:45;100870.40;;;17.56;37.54
52291;BME280;39663;45.432;28.050;2023-10-08T02:09:17;100871.77;;;17.45;37.85
52291;BME280;39663;45.432;28.050;2023-10-08T02:09:49;100870.02;;;17.41;37.65
52291;BME280;39663;45.432;28.050;2023-10-08T02:10:21;100866.19;;;17.29;37.78
52291;BME280;39663;45.432;28.050;2023-10-08T02:10:52;100867.65;;;17.42;38.14
52291;BME280;39663;45.432;28.050;2023-10-08T02:11:24;100869.16;;;17.34;38.96
52291;BME280;39663;45.432;28.050;2023-10-08T02:11:55;100866.74;;;17.38;38.60
52291;BME280;39663;45.432;28.050;2023-10-08T02:12:27;100866.93;;;17.39;38.45
52291;BME280;39663;45.432;28.050;2023-10-08T02:12:58;100864.24;;;16.96;38.18
52291;BME280;39663;45.432;28.050;2023-10-08T02:13:30;100865.31;;;17.31;38.11
52291;BME280;39663;45.432;28.050;2023-10-08T02:14:01;100863.19;;;17.07;38.41
52291;BME280;39663;45.432;28.050;2023-10-08T02:14:34;100861.52;;;16.98;37.97
52291;BME280;39663;45.432;28.050;2023-10-08T02:15:06;100859.90;;;17.00;38.37
52291;BME280;39663;45.432;28.050;2023-10-08T02:15:43;100858.68;;;16.92;38.17
52291;BME280;39663;45.432;28.050;2023-10-08T02:16:18;100857.03;;;17.13;37.91
52291;BME280;39663;45.432;28.050;2023-10-08T02:16:50;100854.43;;;17.05;37.80
52291;BME280;39663;45.432;28.050;2023-10-08T02:17:22;100855.50;;;16.74;38.01
52291;BME280;39663;45.432;28.050;2023-10-08T02:17:53;100856.40;;;16.77;37.94
52291;BME280;39663;45.432;28.050;2023-10-08T02:18:25;100858.80;;;16.77;37.97
52291;BME280;39663;45.432;28.050;2023-10-08T02:18:57;100856.78;;;16.74;38.21
52291;BME280;39663;45.432;28.050;2023-10-08T02:19:28;100856.43;;;16.75;37.89
52291;BME280;39663;45.432;28.050;2023-10-08T02:19:59;100857.05;;;16.70;38.08
52291;BME280;39663;45.432;28.050;2023-10-08T02:20:31;100858.57;;;16.72;37.69
52291;BME280;39663;45.432;28.050;2023-10-08T02:21:03;100861.48;;;16.40;39.09
52291;BME280;39663;45.432;28.050;2023-10-08T02:21:34;100862.08;;;16.42;38.76
52291;BME280;39663;45.432;28.050;2023-10-08T02:22:06;100861.33;;;16.53;38.19
52291;BME280;39663;45.432;28.050;2023-10-08T02:22:37;100864.85;;;16.68;38.26
52291;BME280;39663;45.432;28.050;2023-10-08T02:23:08;100868.76;;;16.50;37.78
52291;BME280;39663;45.432;28.050;2023-10-08T02:23:40;100872.10;;;16.48;38.34
52291;BME280;39663;45.432;28.050;2023-10-08T02:24:12;100872.27;;;16.47;38.62
52291;BME280;39663;45.432;28.050;2023-10-08T02:24:44;100872.38;;;16.50;39.44
52291;BME280;39663;45.432;28.050;2023-10-08T02:25:16;100875.92;;;16.66;37.87
52291;BME280;39663;45.432;28.050;2023-10-08T02:25:47;100877.90;;;16.67;38.12
52291;BME280;39663;45.432;28.050;2023-10-08T02:26:19;100880.16;;;16.68;37.51
52291;BME280;39663;45.432;28.050;2023-10-08T02:26:51;100878.13;;;16.71;37.66
52291;BME280;39663;45.432;28.050;2023-10-08T02:27:22;100878.24;;;16.62;37.78
52291;BME280;39663;45.432;28.050;2023-10-08T02:27:54;100876.91;;;16.53;37.81
52291;BME280;39663;45.432;28.050;2023-10-08T02:28:25;100874.44;;;16.37;38.08
52291;BME280;39663;45.432;28.050;2023-10-08T02:28:57;100871.52;;;16.23;38.41
52291;BME280;39663;45.432;28.050;2023-10-08T02:29:30;100869.57;;;16.46;38.46
52291;BME280;39663;45.432;28.050;2023-10-08T02:30:01;100868.35;;;16.31;38.39
52291;BME280;39663;45.432;28.050;2023-10-08T02:30:33;100866.95;;;16.36;38.42
52291;BME280;39663;45.432;28.050;2023-10-08T02:31:04;100867.29;;;16.25;38.45
52291;BME280;39663;45.432;28.050;2023-10-08T02:31:36;100868.02;;;16.43;38.52
52291;BME280;39663;45.432;28.050;2023-10-08T02:32:08;100869.91;;;16.07;38.89
52291;BME280;39663;45.432;28.050;2023-10-08T02:32:39;100868.56;;;16.33;38.82
52291;BME280;39663;45.432;28.050;2023-10-08T02:33:10;100870.01;;;16.32;38.88
52291;BME280;39663;45.432;28.050;2023-10-08T02:33:42;100867.94;;;16.25;39.41
52291;BME280;39663;45.432;28.050;2023-10-08T02:34:14;100865.38;;;16.30;39.00
52291;BME280;39663;45.432;28.050;2023-10-08T02:34:45;100864.86;;;16.22;38.99
52291;BME280;39663;45.432;28.050;2023-10-08T02:35:17;100861.30;;;16.08;38.88
52291;BME280;39663;45.432;28.050;2023-10-08T02:35:48;100861.77;;;16.50;38.76
52291;BME280;39663;45.432;28.050;2023-10-08T02:36:19;100861.07;;;16.22;38.99
52291;BME280;39663;45.432;28.050;2023-10-08T02:36:51;100858.87;;;16.35;39.19
52291;BME280;39663;45.432;28.050;2023-10-08T02:37:23;100861.57;;;16.24;39.03
52291;BME280;39663;45.432;28.050;2023-10-08T02:37:54;100861.13;;;16.16;39.46
52291;BME280;39663;45.432;28.050;2023-10-08T02:38:26;100862.80;;;16.24;38.98
52291;BME280;39663;45.432;28.050;2023-10-08T02:38:57;100864.73;;;16.24;39.05
52291;BME280;39663;45.432;28.050;2023-10-08T02:39:29;100863.09;;;16.12;39.68
52291;BME280;39663;45.432;28.050;2023-10-08T02:40:00;100860.70;;;16.43;39.78
52291;BME280;39663;45.432;28.050;2023-10-08T02:40:32;100857.11;;;16.38;38.82
52291;BME280;39663;45.432;28.050;2023-10-08T02:41:03;100854.52;;;16.37;38.62
52291;BME280;39663;45.432;28.050;2023-10-08T02:41:35;100857.32;;;16.53;38.57
52291;BME280;39663;45.432;28.050;2023-10-08T02:42:06;100858.57;;;16.56;38.78
52291;BME280;39663;45.432;28.050;2023-10-08T02:42:38;100857.75;;;16.41;38.78
52291;BME280;39663;45.432;28.050;2023-10-08T02:43:09;100858.51;;;16.21;39.09
52291;BME280;39663;45.432;28.050;2023-10-08T02:43:40;100854.52;;;16.63;39.34
52291;BME280;39663;45.432;28.050;2023-10-08T02:44:12;100853.62;;;16.50;39.34
52291;BME280;39663;45.432;28.050;2023-10-08T02:44:44;100854.20;;;16.65;39.04
52291;BME280;39663;45.432;28.050;2023-10-08T02:45:16;100851.20;;;16.29;39.36
52291;BME280;39663;45.432;28.050;2023-10-08T02:45:47;100856.46;;;16.63;39.15
52291;BME280;39663;45.432;28.050;2023-10-08T02:46:18;100857.49;;;16.75;39.27
52291;BME280;39663;45.432;28.050;2023-10-08T02:46:50;100857.70;;;16.82;38.87
52291;BME280;39663;45.432;28.050;2023-10-08T02:47:22;100857.02;;;16.71;38.77
52291;BME280;39663;45.432;28.050;2023-10-08T02:47:53;100856.58;;;16.80;38.90
52291;BME280;39663;45.432;28.050;2023-10-08T02:48:25;100854.01;;;16.67;39.13
52291;BME280;39663;45.432;28.050;2023-10-08T02:48:56;100850.36;;;17.09;39.29
52291;BME280;39663;45.432;28.050;2023-10-08T02:49:28;100846.87;;;17.01;38.79
52291;BME280;39663;45.432;28.050;2023-10-08T02:49:59;100843.32;;;16.78;38.96
52291;BME280;39663;45.432;28.050;2023-10-08T02:50:31;100843.18;;;16.81;38.85
52291;BME280;39663;45.432;28.050;2023-10-08T02:51:02;100843.03;;;16.85;38.89
52291;BME280;39663;45.432;28.050;2023-10-08T02:51:34;100841.59;;;16.73;38.73
52291;BME280;39663;45.432;28.050;2023-10-08T02:52:05;100841.54;;;17.17;38.34
52291;BME280;39663;45.432;28.050;2023-10-08T02:52:37;100840.65;;;16.97;39.00
52291;BME280;39663;45.432;28.050;2023-10-08T02:53:08;100840.33;;;16.97;38.61